Time;durP1;ratioP1;P1;durP2;ratioP2;P2;SDS_P1;SDS_P2;PMS_P1;PMS_P2;Temp;Humidity;BMP_temperature;BMP_pressure;BME280_temperature;BME280_humidity;BME280_pressure;Samples;Min_cycle;Max_cycle;Signal;HPM_P1;HPM_P2
2023/07/31 00:01:35;;;;;;;;;;;;;;;28.78;38.04;100126.97;5095515;28;1131;-29
2023/07/31 00:04:01;;;;;;;;;;;;;;;28.85;37.98;100133.19;5079233;28;1902;-29
2023/07/31 00:06:26;;;;;;;;;;;;;;;28.88;37.80;100121.94;5079364;28;1177;-28
2023/07/31 00:08:52;;;;;;;;;;;;;;;28.85;37.95;100119.66;5099053;28;1065;-29
2023/07/31 00:11:17;;;;;;;;;;;;;;;28.91;38.05;100115.28;5098763;28;995;-25
2023/07/31 00:13:43;;;;;;;;;;;;;;;28.89;37.67;100129.03;5090954;28;2168;-27
2023/07/31 00:16:08;;;;;;;;;;;;;;;28.95;37.68;100136.31;5078833;28;1063;-29
2023/07/31 00:18:34;;;;;;;;;;;;;;;28.80;38.21;100135.69;5086009;28;1115;-26
2023/07/31 00:21:00;;;;;;;;;;;;;;;28.82;38.20;100139.03;5085525;28;1090;-29
2023/07/31 00:23:25;;;;;;;;;;;;;;;28.76;38.04;100134.47;5098570;28;1077;-28
2023/07/31 00:25:51;;;;;;;;;;;;;;;28.69;38.28;100127.19;5084635;28;1990;-26
2023/07/31 00:28:16;;;;;;;;;;;;;;;28.72;38.15;100126.75;5078974;28;1126;-27
2023/07/31 00:30:42;;;;;;;;;;;;;;;28.69;38.37;100137.16;5078690;28;1058;-27
2023/07/31 00:33:07;;;;;;;;;;;;;;;28.69;38.17;100127.19;5078946;28;977;-30
2023/07/31 00:35:33;;;;;;;;;;;;;;;28.69;38.27;100132.59;5078860;28;1031;-27
2023/07/31 00:37:59;;;;;;;;;;;;;;;28.90;37.88;100124.44;5086025;28;1143;-29
2023/07/31 00:40:24;;;;;;;;;;;;;;;28.65;38.60;100125.94;5098024;28;1125;-31
2023/07/31 00:42:50;;;;;;;;;;;;;;;28.85;37.83;100138.59;5094358;28;1824;-29
2023/07/31 00:45:15;;;;;;;;;;;;;;;28.78;38.02;100135.09;5085471;28;1902;-27
2023/07/31 00:47:41;;;;;;;;;;;;;;;28.92;37.65;100133.19;5098582;28;1250;-30
2023/07/31 00:50:07;;;;;;;;;;;;;;;28.73;38.23;100133.00;5098903;28;1117;-25
2023/07/31 00:52:32;;;;;;;;;;;;;;;28.85;37.62;100142.16;5085019;28;1038;-27
2023/07/31 00:54:58;;;;;;;;;;;;;;;28.92;38.01;100138.59;5080223;28;1225;-30
2023/07/31 00:57:24;;;;;;;;;;;;;;;28.94;37.67;100139.22;5074628;28;1281;-27
2023/07/31 00:59:50;;;;;;;;;;;;;;;28.87;37.62;100127.56;5062655;28;1145;-25
2023/07/31 01:02:16;;;;;;;;;;;;;;;28.78;37.77;100127.78;5078994;28;1335;-29
2023/07/31 01:04:42;;;;;;;;;;;;;;;28.72;37.80;100129.47;5090774;28;1974;-28
2023/07/31 01:07:17;;;;;;;;;;;;;;;28.90;37.25;100127.97;5073618;28;1035;-26
2023/07/31 01:09:45;;;;;;;;;;;;;;;28.84;37.33;100134.25;5091812;28;1070;-26
2023/07/31 01:12:12;;;;;;;;;;;;;;;28.94;37.33;100129.25;5085833;28;990;-25
2023/07/31 01:14:38;;;;;;;;;;;;;;;28.92;37.36;100130.47;5079641;28;1027;-27
2023/07/31 01:17:04;;;;;;;;;;;;;;;28.98;37.24;100123.44;5090322;28;1026;-26
2023/07/31 01:19:30;;;;;;;;;;;;;;;28.93;37.00;100122.16;5079350;28;1212;-26
2023/07/31 01:21:59;;;;;;;;;;;;;;;28.87;36.72;100124.84;5071850;28;1146;-28
2023/07/31 01:24:43;;;;;;;;;;;;;;;29.03;36.58;100131.75;5060037;28;1971;-29
2023/07/31 01:27:10;;;;;;;;;;;;;;;29.04;36.70;100136.97;5088611;28;1202;-27
2023/07/31 01:29:43;;;;;;;;;;;;;;;28.97;36.73;100146.97;5080068;28;1166;-28
2023/07/31 01:32:08;;;;;;;;;;;;;;;29.00;36.53;100149.25;5097904;28;887;-29
2023/07/31 01:34:34;;;;;;;;;;;;;;;29.03;36.62;100156.13;5084015;28;1190;-24
2023/07/31 01:36:59;;;;;;;;;;;;;;;29.05;36.68;100162.16;5076539;28;1070;-24
2023/07/31 01:39:25;;;;;;;;;;;;;;;29.01;36.69;100159.03;5083132;28;1094;-29
2023/07/31 01:41:51;;;;;;;;;;;;;;;29.09;36.38;100156.09;5079593;28;1212;-26
2023/07/31 01:44:16;;;;;;;;;;;;;;;29.03;36.58;100151.53;5096929;28;1894;-26
2023/07/31 01:46:42;;;;;;;;;;;;;;;29.06;36.19;100158.41;5086273;28;1122;-28
2023/07/31 01:49:08;;;;;;;;;;;;;;;29.06;36.44;100158.41;5072827;28;1179;-29
2023/07/31 01:51:36;;;;;;;;;;;;;;;29.00;36.62;100159.22;5089209;28;1213;-25
2023/07/31 01:54:02;;;;;;;;;;;;;;;28.77;37.13;100157.78;5092307;28;1106;-27
2023/07/31 01:56:28;;;;;;;;;;;;;;;29.11;36.21;100146.94;5060195;28;906;-32
2023/07/31 01:58:53;;;;;;;;;;;;;;;28.95;36.62;100157.13;5063962;28;2072;-29
2023/07/31 02:01:19;;;;;;;;;;;;;;;28.96;36.67;100164.22;5082834;28;1086;-32
2023/07/31 02:03:44;;;;;;;;;;;;;;;29.00;36.48;100167.34;5077372;28;1968;-30
2023/07/31 02:06:10;;;;;;;;;;;;;;;29.11;36.43;100164.03;5070145;28;1143;-29
2023/07/31 02:08:35;;;;;;;;;;;;;;;29.03;36.17;100151.53;5096806;28;1299;-28
2023/07/31 02:11:01;;;;;;;;;;;;;;;29.07;36.21;100152.78;5097539;28;1122;-27
2023/07/31 02:13:27;;;;;;;;;;;;;;;29.10;36.24;100151.50;5078802;28;1121;-26
2023/07/31 02:15:52;;;;;;;;;;;;;;;29.18;35.87;100147.75;5087516;28;1221;-27
2023/07/31 02:18:18;;;;;;;;;;;;;;;29.15;35.88;100151.72;5096417;28;1368;-29
2023/07/31 02:20:46;;;;;;;;;;;;;;;29.19;36.12;100150.25;5085119;28;871;-27
2023/07/31 02:23:12;;;;;;;;;;;;;;;29.08;36.26;100140.91;5078994;28;1338;-28
2023/07/31 02:25:37;;;;;;;;;;;;;;;29.08;36.30;100149.03;5067225;28;1979;-26
2023/07/31 02:28:03;;;;;;;;;;;;;;;29.15;36.12;100148.16;5081188;28;1070;-27
2023/07/31 02:30:28;;;;;;;;;;;;;;;29.13;36.17;100140.25;5067707;28;1193;-31
2023/07/31 02:32:54;;;;;;;;;;;;;;;29.27;35.89;100140.22;5081204;28;1055;-25
2023/07/31 02:35:20;;;;;;;;;;;;;;;29.06;36.15;100137.56;5096736;28;1038;-27
2023/07/31 02:37:45;;;;;;;;;;;;;;;29.05;36.42;100132.34;5083254;28;1102;-25
2023/07/31 02:40:11;;;;;;;;;;;;;;;29.14;35.99;100130.25;5096671;28;1065;-26
2023/07/31 02:42:37;;;;;;;;;;;;;;;29.07;36.10;100155.50;5091706;28;1057;-28
2023/07/31 02:45:02;;;;;;;;;;;;;;;29.19;35.86;100144.84;5058546;28;1906;-25
2023/07/31 02:47:28;;;;;;;;;;;;;;;29.22;35.94;100157.13;5094037;28;1070;-25
2023/07/31 02:49:53;;;;;;;;;;;;;;;29.25;35.69;100162.13;5096736;28;1034;-29
2023/07/31 02:52:19;;;;;;;;;;;;;;;29.23;36.12;100156.06;5096361;28;1010;-24
2023/07/31 02:54:45;;;;;;;;;;;;;;;29.18;36.09;100155.88;5085703;28;1209;-25
2023/07/31 02:57:10;;;;;;;;;;;;;;;29.05;36.70;100154.88;5089247;28;1166;-30
2023/07/31 02:59:36;;;;;;;;;;;;;;;29.07;37.30;100155.50;5087430;28;1138;-31
2023/07/31 03:02:02;;;;;;;;;;;;;;;29.04;37.22;100158.63;5094213;28;1151;-29
2023/07/31 03:04:27;;;;;;;;;;;;;;;29.02;37.86;100154.44;5084746;28;1902;-27
2023/07/31 03:06:53;;;;;;;;;;;;;;;29.02;37.45;100158.00;5093737;28;1068;-29
2023/07/31 03:09:18;;;;;;;;;;;;;;;29.12;37.28;100157.56;5085333;28;1208;-30
2023/07/31 03:11:44;;;;;;;;;;;;;;;29.09;37.73;100152.56;5057864;28;1067;-28
2023/07/31 03:14:10;;;;;;;;;;;;;;;29.09;37.70;100171.53;5076326;28;1102;-28
2023/07/31 03:16:36;;;;;;;;;;;;;;;29.07;37.38;100165.47;5076548;28;1121;-30
2023/07/31 03:19:01;;;;;;;;;;;;;;;29.05;37.29;100163.00;5075690;28;1172;-29
2023/07/31 03:21:27;;;;;;;;;;;;;;;29.08;37.68;100169.84;5058066;28;1091;-29
2023/07/31 03:23:52;;;;;;;;;;;;;;;29.01;37.77;100160.91;5068621;28;1967;-30
2023/07/31 03:26:18;;;;;;;;;;;;;;;29.11;37.35;100169.44;5079569;28;1157;-29
2023/07/31 03:28:44;;;;;;;;;;;;;;;29.10;37.67;100159.63;5064842;28;1431;-27
2023/07/31 03:31:09;;;;;;;;;;;;;;;28.60;38.47;100167.16;5089687;28;1066;-30
2023/07/31 03:33:35;;;;;;;;;;;;;;;27.82;42.47;100169.25;5098568;28;1316;-27
2023/07/31 03:36:01;;;;;;;;;;;;;;;27.30;43.75;100168.72;5084724;28;1222;-30
2023/07/31 03:38:27;;;;;;;;;;;;;;;27.20;44.09;100158.28;5088530;28;1321;-28
2023/07/31 03:40:53;;;;;;;;;;;;;;;26.95;44.51;100154.16;5102478;28;1221;-26
2023/07/31 03:43:18;;;;;;;;;;;;;;;26.68;45.52;100162.03;5102026;28;1002;-29
2023/07/31 03:45:44;;;;;;;;;;;;;;;26.89;45.33;100166.56;5098555;28;1914;-29
2023/07/31 03:48:10;;;;;;;;;;;;;;;26.85;45.59;100169.84;5068556;28;1130;-26
2023/07/31 03:50:36;;;;;;;;;;;;;;;26.67;46.31;100168.47;5082315;28;1027;-27
2023/07/31 03:53:01;;;;;;;;;;;;;;;27.48;43.53;100170.91;5082345;28;1125;-30
2023/07/31 03:55:27;;;;;;;;;;;;;;;27.62;43.12;100171.81;5082303;28;1010;-28
2023/07/31 03:57:53;;;;;;;;;;;;;;;27.58;43.50;100165.13;5082280;28;1006;-29
2023/07/31 04:00:18;;;;;;;;;;;;;;;27.65;43.54;100167.88;5088652;28;1050;-28
2023/07/31 04:02:44;;;;;;;;;;;;;;;28.01;43.10;100169.50;5102070;28;2081;-29
2023/07/31 04:05:10;;;;;;;;;;;;;;;27.78;43.08;100167.16;5101643;28;1985;-30
2023/07/31 04:07:36;;;;;;;;;;;;;;;27.46;44.27;100175.69;5102164;28;1161;-26
2023/07/31 04:10:01;;;;;;;;;;;;;;;27.54;44.33;100180.94;5101139;28;1051;-29
2023/07/31 04:12:27;;;;;;;;;;;;;;;27.69;43.25;100172.72;5101715;28;930;-28
2023/07/31 04:14:52;;;;;;;;;;;;;;;27.80;43.07;100170.47;5102418;28;1114;-30
2023/07/31 04:17:18;;;;;;;;;;;;;;;27.78;43.05;100170.66;5101840;28;1141;-27
2023/07/31 04:19:43;;;;;;;;;;;;;;;27.63;44.06;100168.91;5101103;28;1012;-27
2023/07/31 04:22:09;;;;;;;;;;;;;;;27.54;44.41;100172.84;5101954;28;1216;-27
2023/07/31 04:24:35;;;;;;;;;;;;;;;27.65;44.10;100170.56;5101401;28;1978;-29
2023/07/31 04:27:00;;;;;;;;;;;;;;;27.60;44.08;100169.31;5102603;28;1085;-32
2023/07/31 04:29:26;;;;;;;;;;;;;;;27.62;43.54;100167.25;5101913;28;994;-26
2023/07/31 04:31:51;;;;;;;;;;;;;;;27.77;42.86;100166.31;5101832;28;1070;-28
2023/07/31 04:34:17;;;;;;;;;;;;;;;28.04;42.14;100168.25;5099751;28;2550;-25
2023/07/31 04:36:42;;;;;;;;;;;;;;;28.12;42.16;100173.50;5101965;28;1149;-31
2023/07/31 04:39:08;;;;;;;;;;;;;;;27.91;43.14;100175.28;5098804;28;1090;-28
2023/07/31 04:41:33;;;;;;;;;;;;;;;27.93;43.46;100175.91;5097919;28;1113;-29
2023/07/31 04:43:59;;;;;;;;;;;;;;;27.91;43.17;100172.56;5098391;28;1989;-26
2023/07/31 04:46:25;;;;;;;;;;;;;;;27.92;43.28;100176.13;5098213;28;1035;-25
2023/07/31 04:48:50;;;;;;;;;;;;;;;27.86;43.41;100177.78;5098300;28;1039;-28
2023/07/31 04:51:16;;;;;;;;;;;;;;;27.90;43.26;100186.28;5098354;28;1109;-28
2023/07/31 04:53:41;;;;;;;;;;;;;;;27.83;44.07;100191.69;5098279;28;1074;-25
2023/07/31 04:56:07;;;;;;;;;;;;;;;27.79;44.23;100193.97;5098016;28;1019;-26
2023/07/31 04:58:32;;;;;;;;;;;;;;;27.83;44.03;100187.13;5098636;28;1133;-31
2023/07/31 05:00:58;;;;;;;;;;;;;;;27.96;44.03;100197.13;5098266;28;1102;-25
2023/07/31 05:03:24;;;;;;;;;;;;;;;27.96;43.62;100194.44;5093547;28;1820;-30
2023/07/31 05:05:49;;;;;;;;;;;;;;;28.09;43.38;100192.81;5098036;28;1981;-26
2023/07/31 05:08:17;;;;;;;;;;;;;;;28.34;42.77;100203.13;5097608;28;1031;-28
2023/07/31 05:10:43;;;;;;;;;;;;;;;28.32;42.79;100200.59;5098404;28;1042;-27
2023/07/31 05:13:08;;;;;;;;;;;;;;;28.34;43.12;100205.81;5096832;28;1333;-27
2023/07/31 05:15:34;;;;;;;;;;;;;;;28.19;43.51;100204.09;5097854;28;1001;-28
2023/07/31 05:17:59;;;;;;;;;;;;;;;27.77;44.56;100206.84;5095510;28;1202;-30
2023/07/31 05:20:25;;;;;;;;;;;;;;;28.01;43.84;100207.34;5092235;28;1356;-27
2023/07/31 05:22:50;;;;;;;;;;;;;;;27.61;45.17;100214.22;5093237;28;1142;-28
2023/07/31 05:25:16;;;;;;;;;;;;;;;28.00;44.97;100208.38;5097190;28;1897;-28
2023/07/31 05:27:42;;;;;;;;;;;;;;;27.95;44.80;100209.00;5097834;28;1066;-29
2023/07/31 05:30:07;;;;;;;;;;;;;;;28.18;44.68;100213.22;5097712;28;1030;-28
2023/07/31 05:32:33;;;;;;;;;;;;;;;27.83;45.17;100219.53;5097022;28;1010;-26
2023/07/31 05:34:59;;;;;;;;;;;;;;;28.23;43.49;100209.91;5088375;28;2498;-29
2023/07/31 05:37:24;;;;;;;;;;;;;;;28.40;43.56;100213.09;5097068;28;1134;-28
2023/07/31 05:39:51;;;;;;;;;;;;;;;28.04;45.11;100201.56;5097308;28;979;-33
2023/07/31 05:42:16;;;;;;;;;;;;;;;27.64;46.06;100218.41;5097285;28;1022;-23
2023/07/31 05:44:42;;;;;;;;;;;;;;;27.70;45.43;100211.38;5097046;28;1980;-26
2023/07/31 05:47:07;;;;;;;;;;;;;;;27.78;45.54;100213.09;5095806;28;1092;-24
2023/07/31 05:49:33;;;;;;;;;;;;;;;27.26;47.98;100214.19;5096338;28;1702;-25
2023/07/31 05:51:59;;;;;;;;;;;;;;;27.43;47.35;100217.44;5094284;28;1096;-26
2023/07/31 05:54:25;;;;;;;;;;;;;;;27.29;47.78;100219.22;5097369;28;1104;-25
2023/07/31 05:56:50;;;;;;;;;;;;;;;27.32;47.64;100209.88;5093230;28;1367;-23
2023/07/31 05:59:16;;;;;;;;;;;;;;;27.70;46.36;100216.78;5097153;28;1042;-24
2023/07/31 06:01:42;;;;;;;;;;;;;;;27.79;46.21;100214.75;5097138;28;1098;-25
2023/07/31 06:04:07;;;;;;;;;;;;;;;27.37;46.89;100220.94;5096831;28;2656;-28
2023/07/31 06:06:33;;;;;;;;;;;;;;;27.82;46.80;100215.19;5097092;28;1196;-24
2023/07/31 06:08:58;;;;;;;;;;;;;;;28.10;44.81;100216.97;5096353;28;1002;-23
2023/07/31 06:11:24;;;;;;;;;;;;;;;28.12;46.40;100214.03;5096885;28;1102;-24
2023/07/31 06:13:50;;;;;;;;;;;;;;;27.98;47.01;100216.69;5079144;28;1174;-25
2023/07/31 06:16:15;;;;;;;;;;;;;;;27.65;47.22;100220.06;5096554;28;1057;-27
2023/07/31 06:18:41;;;;;;;;;;;;;;;28.04;45.98;100222.34;5096393;28;1231;-25
2023/07/31 06:21:07;;;;;;;;;;;;;;;28.08;46.16;100220.88;5096342;28;1158;-28
2023/07/31 06:23:32;;;;;;;;;;;;;;;28.24;45.54;100235.94;5079111;28;1082;-25
2023/07/31 06:25:58;;;;;;;;;;;;;;;28.33;44.93;100234.72;5096729;28;1981;-27
2023/07/31 06:28:30;;;;;;;;;;;;;;;27.98;45.44;100241.03;5096478;28;1094;-22
2023/07/31 06:30:55;;;;;;;;;;;;;;;28.35;45.24;100240.78;5096306;28;1097;-24
2023/07/31 06:33:21;;;;;;;;;;;;;;;28.48;44.74;100237.25;5090209;28;2401;-28
2023/07/31 06:35:47;;;;;;;;;;;;;;;28.43;44.39;100244.31;5095617;28;1131;-26
2023/07/31 06:38:12;;;;;;;;;;;;;;;28.50;43.83;100242.47;5096285;28;1058;-24
2023/07/31 06:40:38;;;;;;;;;;;;;;;28.54;44.14;100246.44;5096104;28;1047;-27
2023/07/31 06:43:07;;;;;;;;;;;;;;;28.65;43.76;100244.16;5096406;28;1027;-28
2023/07/31 06:45:36;;;;;;;;;;;;;;;28.65;43.61;100245.00;5095900;28;1975;-32
2023/07/31 06:48:02;;;;;;;;;;;;;;;28.63;44.11;100244.34;5096457;28;1129;-31
2023/07/31 06:50:33;;;;;;;;;;;;;;;28.67;44.27;100237.50;5096212;28;1046;-27
2023/07/31 06:52:58;;;;;;;;;;;;;;;28.81;43.67;100234.81;5096375;28;1138;-27
2023/07/31 06:55:24;;;;;;;;;;;;;;;28.87;43.25;100235.84;5096512;28;1102;-27
2023/07/31 06:57:50;;;;;;;;;;;;;;;28.93;43.39;100235.00;5095870;28;887;-29
2023/07/31 07:00:16;;;;;;;;;;;;;;;29.02;42.92;100230.25;5095277;28;1121;-25
2023/07/31 07:02:41;;;;;;;;;;;;;;;29.00;42.83;100235.88;5095572;28;2468;-23
2023/07/31 07:05:07;;;;;;;;;;;;;;;29.11;41.75;100230.91;5091861;28;1984;-26
2023/07/31 07:07:33;;;;;;;;;;;;;;;29.09;42.35;100234.63;5095711;28;1158;-25
2023/07/31 07:09:59;;;;;;;;;;;;;;;29.17;42.60;100233.59;5095796;28;1051;-28
2023/07/31 07:12:25;;;;;;;;;;;;;;;29.06;43.19;100239.66;5095876;28;1276;-25
2023/07/31 07:14:52;;;;;;;;;;;;;;;29.21;43.52;100234.81;5077652;28;1309;-24
2023/07/31 07:17:18;;;;;;;;;;;;;;;29.26;42.68;100226.06;5095689;28;1371;-27
2023/07/31 07:19:45;;;;;;;;;;;;;;;29.26;43.19;100227.97;5095295;28;1276;-25
2023/07/31 07:22:11;;;;;;;;;;;;;;;29.28;42.65;100228.59;5089820;28;1253;-27
2023/07/31 07:24:36;;;;;;;;;;;;;;;29.29;41.64;100222.97;5095588;28;1984;-30
2023/07/31 07:27:02;;;;;;;;;;;;;;;29.51;41.25;100219.97;5096037;28;1197;-27
2023/07/31 07:29:28;;;;;;;;;;;;;;;29.61;41.02;100232.31;5095222;28;1189;-23
2023/07/31 07:31:54;;;;;;;;;;;;;;;29.48;39.70;100231.25;5095234;28;1201;-24
2023/07/31 07:34:19;;;;;;;;;;;;;;;29.41;40.73;100228.53;5087962;28;2363;-27
2023/07/31 07:36:45;;;;;;;;;;;;;;;29.23;40.54;100223.78;5095109;28;1134;-26
2023/07/31 07:39:11;;;;;;;;;;;;;;;29.33;40.43;100229.59;5095470;28;1102;-27
2023/07/31 07:41:36;;;;;;;;;;;;;;;29.43;39.94;100221.03;5076724;28;1647;-25
2023/07/31 07:44:02;;;;;;;;;;;;;;;29.50;40.01;100226.44;5095122;28;1981;-29
2023/07/31 07:46:27;;;;;;;;;;;;;;;29.46;40.39;100230.66;5094950;28;1161;-29
2023/07/31 07:48:53;;;;;;;;;;;;;;;29.45;39.58;100235.22;5095335;28;991;-29
2023/07/31 07:51:18;;;;;;;;;;;;;;;29.55;39.20;100232.06;5094967;28;1113;-28
2023/07/31 07:53:44;;;;;;;;;;;;;;;29.55;39.52;100236.66;5086932;28;1325;-26
2023/07/31 07:56:10;;;;;;;;;;;;;;;29.60;39.04;100236.88;5095378;28;1153;-24
2023/07/31 07:58:35;;;;;;;;;;;;;;;29.60;39.52;100241.47;5095216;28;1143;-27
2023/07/31 08:01:01;;;;;;;;;;;;;;;29.55;39.34;100232.06;5094839;28;1101;-26
2023/07/31 08:03:26;;;;;;;;;;;;;;;29.55;39.54;100231.22;5089075;28;2350;-25
2023/07/31 08:05:52;;;;;;;;;;;;;;;29.52;40.59;100231.66;5091671;28;1978;-28
2023/07/31 08:08:18;;;;;;;;;;;;;;;29.65;39.87;100228.09;5095271;28;1101;-28
2023/07/31 08:10:44;;;;;;;;;;;;;;;29.84;39.55;100233.69;5095077;28;1106;-26
2023/07/31 08:13:11;;;;;;;;;;;;;;;29.85;38.82;100229.91;5095587;28;1042;-25
2023/07/31 08:15:36;;;;;;;;;;;;;;;29.80;38.75;100236.81;5099081;28;1045;-28
2023/07/31 08:18:02;;;;;;;;;;;;;;;29.74;39.14;100232.25;5097908;28;1356;-28
2023/07/31 08:20:27;;;;;;;;;;;;;;;29.67;38.72;100243.13;5098430;28;1351;-27
2023/07/31 08:22:53;;;;;;;;;;;;;;;29.69;39.09;100246.47;5084796;28;1406;-33
2023/07/31 08:25:19;;;;;;;;;;;;;;;29.72;39.12;100236.22;5098445;28;1902;-27
2023/07/31 08:27:44;;;;;;;;;;;;;;;29.98;38.27;100238.00;5099248;28;1280;-26
2023/07/31 08:30:11;;;;;;;;;;;;;;;29.87;38.38;100244.94;5097330;28;1170;-25
2023/07/31 08:32:36;;;;;;;;;;;;;;;29.60;39.02;100241.47;5096266;28;1300;-26
2023/07/31 08:35:02;;;;;;;;;;;;;;;29.86;39.05;100243.28;5089499;28;2695;-29
2023/07/31 08:37:28;;;;;;;;;;;;;;;29.71;39.51;100238.13;5098546;28;1154;-29
2023/07/31 08:39:54;;;;;;;;;;;;;;;29.68;39.01;100238.50;5098939;28;1149;-26
2023/07/31 08:42:20;;;;;;;;;;;;;;;29.97;36.96;100243.63;5098537;28;1497;-28
2023/07/31 08:44:45;;;;;;;;;;;;;;;29.80;37.24;100238.69;5098853;28;1976;-29
2023/07/31 08:47:11;;;;;;;;;;;;;;;29.94;37.42;100236.78;5080258;28;1032;-28
2023/07/31 08:49:37;;;;;;;;;;;;;;;29.84;37.32;100237.22;5098055;28;1018;-26
2023/07/31 08:52:02;;;;;;;;;;;;;;;29.93;36.10;100244.06;5080424;28;1074;-27
2023/07/31 08:54:30;;;;;;;;;;;;;;;29.89;36.42;100244.72;5098691;28;1110;-29
2023/07/31 08:56:56;;;;;;;;;;;;;;;29.90;36.94;100246.38;5098291;28;1170;-26
2023/07/31 08:59:22;;;;;;;;;;;;;;;29.92;36.62;100249.72;5098147;28;902;-27
2023/07/31 09:01:48;;;;;;;;;;;;;;;29.83;36.54;100251.81;5097754;28;1221;-28
2023/07/31 09:04:14;;;;;;;;;;;;;;;29.27;37.48;100248.59;5094073;28;1901;-24
2023/07/31 09:06:39;;;;;;;;;;;;;;;29.85;36.76;100249.72;5079907;28;1078;-26
2023/07/31 09:09:05;;;;;;;;;;;;;;;30.08;36.44;100242.97;5088733;28;1296;-26
2023/07/31 09:11:31;;;;;;;;;;;;;;;30.10;36.10;100251.72;5098452;28;1076;-24
2023/07/31 09:13:57;;;;;;;;;;;;;;;30.04;36.57;100256.13;5097415;28;1166;-25
2023/07/31 09:16:30;;;;;;;;;;;;;;;29.94;36.57;100256.59;5096441;28;1021;-25
2023/07/31 09:18:56;;;;;;;;;;;;;;;30.02;36.55;100257.38;5096435;28;1078;-26
2023/07/31 09:21:23;;;;;;;;;;;;;;;30.06;36.69;100264.88;5086834;28;1018;-29
2023/07/31 09:23:48;;;;;;;;;;;;;;;30.05;36.50;100260.50;5097457;28;885;-26
2023/07/31 09:26:28;;;;;;;;;;;;;;;30.09;36.53;100269.06;5097348;28;1898;-27
2023/07/31 09:28:54;;;;;;;;;;;;;;;29.97;37.79;100266.16;5088438;28;1039;-23
2023/07/31 09:31:31;;;;;;;;;;;;;;;30.08;37.19;100269.25;5094104;28;1088;-23
2023/07/31 09:33:57;;;;;;;;;;;;;;;30.20;37.28;100270.28;5089215;28;2429;-26
2023/07/31 09:36:22;;;;;;;;;;;;;;;30.19;35.84;100272.16;5097943;28;1089;-27
2023/07/31 09:38:48;;;;;;;;;;;;;;;30.35;36.26;100269.16;5097640;28;1465;-25
2023/07/31 09:41:13;;;;;;;;;;;;;;;30.18;36.77;100264.19;5097511;28;1172;-26
2023/07/31 09:43:39;;;;;;;;;;;;;;;30.24;36.67;100273.38;5097958;28;1073;-28
2023/07/31 09:46:05;;;;;;;;;;;;;;;30.35;34.84;100266.44;5096897;28;1894;-26
2023/07/31 09:48:30;;;;;;;;;;;;;;;29.82;35.35;100187.81;5079132;28;1460;-28
2023/07/31 09:50:56;;;;;;;;;;;;;;;30.27;35.64;100270.25;5097204;28;1077;-29
2023/07/31 09:53:27;;;;;;;;;;;;;;;30.35;35.17;100266.44;5097737;28;1105;-28
2023/07/31 09:55:53;;;;;;;;;;;;;;;30.24;34.77;100271.53;5096780;28;1241;-25
2023/07/31 09:58:18;;;;;;;;;;;;;;;30.28;34.96;100272.75;5077870;28;896;-24
2023/07/31 10:00:44;;;;;;;;;;;;;;;30.16;36.26;100261.69;5077714;28;1186;-26
2023/07/31 10:03:10;;;;;;;;;;;;;;;30.15;36.14;100272.75;5077995;28;2382;-26
2023/07/31 10:05:35;;;;;;;;;;;;;;;30.23;36.24;100272.53;5096594;28;1897;-27
2023/07/31 10:08:01;;;;;;;;;;;;;;;30.26;35.76;100268.59;5096981;28;1045;-25
2023/07/31 10:10:27;;;;;;;;;;;;;;;30.35;35.71;100266.44;5096172;28;1011;-29
2023/07/31 10:12:53;;;;;;;;;;;;;;;30.30;34.84;100258.94;5096895;28;1086;-25
2023/07/31 10:15:18;;;;;;;;;;;;;;;30.39;35.94;100262.25;5096729;28;1039;-24
2023/07/31 10:17:44;;;;;;;;;;;;;;;30.34;35.09;100268.34;5097306;28;1022;-25
2023/07/31 10:20:10;;;;;;;;;;;;;;;30.28;36.21;100263.78;5095776;28;1042;-29
2023/07/31 10:22:35;;;;;;;;;;;;;;;30.35;36.08;100266.44;5096293;28;1070;-26
2023/07/31 10:25:01;;;;;;;;;;;;;;;30.22;36.54;100270.91;5078658;28;1909;-28
2023/07/31 10:27:27;;;;;;;;;;;;;;;30.26;35.77;100272.13;5096682;28;1189;-30
2023/07/31 10:29:53;;;;;;;;;;;;;;;30.30;35.39;100267.09;5096597;28;1070;-26
2023/07/31 10:32:18;;;;;;;;;;;;;;;29.87;37.50;100271.22;5096458;28;1126;-26
2023/07/31 10:34:44;;;;;;;;;;;;;;;30.11;37.07;100288.66;5074662;28;2693;-26
2023/07/31 10:37:39;;;;;;;;;;;;;;;30.04;38.51;100287.84;5077745;28;1015;-30
2023/07/31 10:40:05;;;;;;;;;;;;;;;30.14;38.56;100279.25;5074248;28;1258;-30
2023/07/31 10:42:38;;;;;;;;;;;;;;;30.04;38.91;100293.28;5096179;28;1047;-29
2023/07/31 10:45:10;;;;;;;;;;;;;;;29.68;39.82;100284.59;5096046;28;1967;-29
2023/07/31 10:47:42;;;;;;;;;;;;;;;29.92;40.24;100285.81;5095544;28;1030;-28
2023/07/31 10:50:18;;;;;;;;;;;;;;;29.64;40.25;100286.91;5096476;28;1153;-30
2023/07/31 10:52:51;;;;;;;;;;;;;;;29.52;40.66;100283.97;5096304;28;1054;-29
2023/07/31 10:55:25;;;;;;;;;;;;;;;29.60;40.67;100285.66;5096173;28;1030;-29
2023/07/31 10:57:51;;;;;;;;;;;;;;;29.50;40.87;100277.94;5095634;28;1046;-27
2023/07/31 11:00:21;;;;;;;;;;;;;;;29.67;42.38;100274.81;5093119;28;1089;-27
2023/07/31 11:02:59;;;;;;;;;;;;;;;29.51;42.95;100276.88;5094561;28;2384;-30
2023/07/31 11:05:43;;;;;;;;;;;;;;;29.49;42.85;100278.16;5094763;28;1969;-29
2023/07/31 11:08:15;;;;;;;;;;;;;;;29.36;44.01;100263.59;5095841;28;1121;-27
2023/07/31 11:10:40;;;;;;;;;;;;;;;29.41;43.92;100274.59;5095775;28;1003;-30
2023/07/31 11:13:06;;;;;;;;;;;;;;;29.51;43.87;100265.22;5095560;28;1097;-28
2023/07/31 11:15:31;;;;;;;;;;;;;;;29.65;44.00;100266.06;5095796;28;1090;-33
2023/07/31 11:18:00;;;;;;;;;;;;;;;29.54;44.52;100251.25;5095761;28;1177;-29
2023/07/31 11:20:25;;;;;;;;;;;;;;;29.40;45.21;100243.16;5095168;28;1051;-29
2023/07/31 11:22:51;;;;;;;;;;;;;;;29.45;44.83;100246.06;5095245;28;1106;-30
2023/07/31 11:25:17;;;;;;;;;;;;;;;29.60;44.64;100241.47;5095797;28;1902;-27
2023/07/31 11:27:43;;;;;;;;;;;;;;;29.69;43.78;100241.03;5077420;28;1078;-27
2023/07/31 11:30:09;;;;;;;;;;;;;;;29.15;44.62;100238.38;5095523;28;1014;-30
2023/07/31 11:32:38;;;;;;;;;;;;;;;29.18;44.15;100243.38;5095556;28;1170;-31
2023/07/31 11:35:05;;;;;;;;;;;;;;;29.24;44.22;100233.59;5095452;28;2630;-30
2023/07/31 11:37:41;;;;;;;;;;;;;;;29.69;43.56;100227.50;5095602;28;1146;-30
2023/07/31 11:40:07;;;;;;;;;;;;;;;29.42;42.96;100232.09;5095871;28;1047;-29
2023/07/31 11:42:32;;;;;;;;;;;;;;;29.84;42.12;100229.09;5095600;28;1046;-30
2023/07/31 11:44:58;;;;;;;;;;;;;;;29.89;41.00;100228.44;5095184;28;1971;-29
2023/07/31 11:47:25;;;;;;;;;;;;;;;29.37;42.70;100229.19;5095785;28;1090;-28
2023/07/31 11:49:51;;;;;;;;;;;;;;;28.84;42.89;100223.56;5100118;28;1071;-30
2023/07/31 11:52:16;;;;;;;;;;;;;;;29.11;43.37;100228.19;5099511;28;1257;-29
2023/07/31 11:54:42;;;;;;;;;;;;;;;29.42;42.08;100227.53;5081363;28;1306;-30
2023/07/31 11:57:07;;;;;;;;;;;;;;;29.54;41.21;100232.28;5081533;28;1022;-31
2023/07/31 11:59:33;;;;;;;;;;;;;;;29.63;41.11;100222.09;5098508;28;1051;-30
2023/07/31 12:01:59;;;;;;;;;;;;;;;29.38;40.98;100225.44;5091885;28;1542;-28
2023/07/31 12:04:25;;;;;;;;;;;;;;;29.48;40.43;100235.84;5084414;28;2191;-27
2023/07/31 12:06:52;;;;;;;;;;;;;;;29.30;41.36;100235.44;5090456;28;1103;-28
2023/07/31 12:09:18;;;;;;;;;;;;;;;29.07;42.24;100225.91;5072091;28;1331;-26
2023/07/31 12:11:44;;;;;;;;;;;;;;;29.00;43.18;100216.94;5092038;28;1344;-29
2023/07/31 12:14:19;;;;;;;;;;;;;;;29.33;41.97;100220.63;5097644;28;1115;-28
2023/07/31 12:16:44;;;;;;;;;;;;;;;29.30;41.93;100226.47;5099045;28;1043;-25
2023/07/31 12:19:10;;;;;;;;;;;;;;;29.46;41.57;100223.31;5098986;28;1194;-27
2023/07/31 12:21:36;;;;;;;;;;;;;;;29.34;41.18;100228.56;5098356;28;1440;-29
2023/07/31 12:24:01;;;;;;;;;;;;;;;29.44;40.95;100224.59;5080436;28;1164;-24
2023/07/31 12:26:33;;;;;;;;;;;;;;;29.31;41.49;100217.34;5098310;28;1922;-26
2023/07/31 12:28:58;;;;;;;;;;;;;;;29.17;42.04;100221.91;5099000;28;1023;-25
2023/07/31 12:31:25;;;;;;;;;;;;;;;29.32;41.18;100211.69;5095970;28;1566;-27
2023/07/31 12:33:51;;;;;;;;;;;;;;;29.16;41.60;100210.25;5098738;28;1836;-29
2023/07/31 12:36:17;;;;;;;;;;;;;;;29.01;42.21;100213.16;5095920;28;1027;-26
2023/07/31 12:38:43;;;;;;;;;;;;;;;29.20;41.77;100199.84;5098739;28;1018;-28
2023/07/31 12:41:08;;;;;;;;;;;;;;;29.05;41.91;100200.91;5098489;28;1341;-26
2023/07/31 12:43:39;;;;;;;;;;;;;;;29.14;41.28;100190.69;5098705;28;1079;-33